Time;durP1;ratioP1;P1;durP2;ratioP2;P2;SDS_P1;SDS_P2;PMS_P1;PMS_P2;Temp;Humidity;BMP_temperature;BMP_pressure;BME280_temperature;BME280_humidity;BME280_pressure;Samples;Min_cycle;Max_cycle;Signal;HPM_P1;HPM_P2
2022/04/30 00:00:00;;;;;;;10.73;9.25;;;;;;;12.31;65.12;102005.44;4986582;28;20241;-52
2022/04/30 00:02:26;;;;;;;13.05;10.82;;;;;;;12.23;65.48;101997.44;4994883;28;20237;-51
2022/04/30 00:04:52;;;;;;;11.82;9.90;;;;;;;12.17;65.25;102000.00;4997977;28;20261;-52
2022/04/30 00:07:20;;;;;;;9.68;8.57;;;;;;;12.14;65.02;101994.69;4987030;28;20752;-53
2022/04/30 00:09:47;;;;;;;11.45;9.27;;;;;;;12.15;65.03;101996.47;4986563;28;20258;-52
2022/04/30 00:12:16;;;;;;;12.55;10.18;;;;;;;12.09;66.68;102002.53;4983567;28;20841;-52
2022/04/30 00:14:44;;;;;;;13.90;9.98;;;;;;;12.04;67.66;102008.59;4990370;28;20657;-52
2022/04/30 00:17:11;;;;;;;13.73;9.18;;;;;;;11.99;67.90;102008.53;4983196;28;20613;-52
2022/04/30 00:19:37;;;;;;;9.25;7.85;;;;;;;11.99;66.74;101997.13;5006733;28;20265;-52
2022/04/30 00:22:04;;;;;;;10.63;8.73;;;;;;;11.93;65.71;101998.81;4997845;28;20366;-52
2022/04/30 00:24:31;;;;;;;12.35;8.02;;;;;;;11.94;65.22;102005.84;4997314;28;20226;-52
2022/04/30 00:27:01;;;;;;;13.55;8.80;;;;;;;11.88;65.10;101996.97;4993376;28;20334;-53
2022/04/30 00:29:31;;;;;;;10.23;7.70;;;;;;;11.84;65.46;101997.81;5005987;28;20815;-53
2022/04/30 00:31:58;;;;;;;10.13;8.25;;;;;;;11.79;66.10;101995.06;5000649;28;20253;-51
2022/04/30 00:34:25;;;;;;;12.20;8.43;;;;;;;11.78;67.01;101992.41;5007301;28;20316;-52
2022/04/30 00:36:51;;;;;;;9.75;7.63;;;;;;;11.76;67.92;102000.31;5000188;28;20716;-52
2022/04/30 00:39:17;;;;;;;9.50;8.60;;;;;;;11.72;68.29;101990.56;4998745;28;20257;-53
2022/04/30 00:41:44;;;;;;;10.80;9.68;;;;;;;11.71;68.64;101991.44;4988461;28;20307;-52
2022/04/30 00:44:11;;;;;;;11.77;9.32;;;;;;;11.67;68.72;101992.25;4991110;28;20609;-53
2022/04/30 00:46:39;;;;;;;9.98;9.00;;;;;;;11.58;68.10;101990.41;4986243;28;20248;-52
2022/04/30 00:49:07;;;;;;;10.50;9.40;;;;;;;11.50;68.37;101991.13;5001324;28;20326;-53
2022/04/30 00:51:37;;;;;;;10.55;8.65;;;;;;;11.53;67.93;101996.44;4994579;28;20234;-52
2022/04/30 00:54:05;;;;;;;10.52;8.23;;;;;;;11.46;68.49;101991.06;5006477;28;20235;-52
2022/04/30 00:56:34;;;;;;;10.07;7.97;;;;;;;11.38;69.04;101992.69;4992916;28;20295;-51
2022/04/30 00:59:03;;;;;;;8.98;7.95;;;;;;;11.32;69.74;101989.97;4980650;28;20234;-52
2022/04/30 01:01:32;;;;;;;12.32;8.60;;;;;;;11.26;70.03;101992.50;4992233;28;20658;-51
2022/04/30 01:04:00;;;;;;;10.40;7.70;;;;;;;11.15;70.28;101983.53;5001871;28;20718;-51
2022/04/30 01:06:35;;;;;;;8.43;7.63;;;;;;;11.15;70.92;101988.81;4997154;28;20252;-52
2022/04/30 01:09:01;;;;;;;10.98;7.47;;;;;;;11.21;69.93;101988.91;4990090;28;20217;-52
2022/04/30 01:11:29;;;;;;;8.67;7.23;;;;;;;11.13;70.18;101990.53;5008949;28;20233;-51
2022/04/30 01:13:58;;;;;;;9.32;7.97;;;;;;;11.10;70.90;101974.72;4993319;28;20260;-52
2022/04/30 01:16:25;;;;;;;9.40;7.07;;;;;;;11.07;70.76;101982.53;4983536;28;20229;-52
2022/04/30 01:18:52;;;;;;;9.17;6.73;;;;;;;11.04;70.64;101970.22;4982578;28;20234;-52
2022/04/30 01:21:23;;;;;;;9.80;7.20;;;;;;;11.06;70.67;101972.91;4999897;28;20229;-51
2022/04/30 01:23:52;;;;;;;9.38;6.75;;;;;;;11.06;71.04;101978.16;4993751;28;20237;-51
2022/04/30 01:26:19;;;;;;;7.87;6.90;;;;;;;11.02;71.22;101976.31;4998560;28;20490;-52
2022/04/30 01:28:46;;;;;;;9.90;6.93;;;;;;;10.99;71.43;101978.03;4997028;28;20778;-52
2022/04/30 01:39:22;;;;;;;10.13;7.00;;;;;;;10.98;71.33;101970.13;4996445;28;20244;-51
2022/04/30 01:41:48;;;;;;;10.07;6.90;;;;;;;10.97;71.01;101965.72;5007337;28;20233;-51
2022/04/30 01:44:16;;;;;;;13.05;7.30;;;;;;;10.95;71.03;101965.72;4993262;28;20253;-52
2022/04/30 01:46:44;;;;;;;10.25;8.60;;;;;;;11.01;72.00;101974.53;5001645;28;20569;-52
2022/04/30 01:49:15;;;;;;;10.32;6.20;;;;;;;10.99;72.95;101959.66;4991009;28;20260;-53
2022/04/30 01:51:48;;;;;;;6.37;5.77;;;;;;;10.93;73.23;101967.41;4997212;28;20257;-51
2022/04/30 01:54:15;;;;;;;10.57;8.13;;;;;;;10.87;73.71;101971.69;4995904;28;20953;-52
2022/04/30 01:56:42;;;;;;;8.83;7.17;;;;;;;10.84;72.46;101967.25;4992208;28;20242;-52
2022/04/30 01:59:09;;;;;;;8.40;6.43;;;;;;;10.75;72.78;101959.22;4999591;28;20244;-52
2022/04/30 02:01:35;;;;;;;7.47;6.40;;;;;;;10.64;73.30;101960.78;4988724;28;20265;-51
2022/04/30 02:04:03;;;;;;;9.00;7.07;;;;;;;10.57;73.84;101959.78;4996332;28;20221;-52
2022/04/30 02:06:29;;;;;;;8.57;6.40;;;;;;;10.55;72.93;101958.84;4984592;28;20241;-53
2022/04/30 02:08:55;;;;;;;9.47;6.77;;;;;;;10.57;72.91;101961.50;5012174;28;20233;-51
2022/04/30 02:11:22;;;;;;;6.37;5.77;;;;;;;10.56;73.25;101965.84;5003963;28;20284;-51
2022/04/30 02:13:53;;;;;;;6.77;5.93;;;;;;;10.59;73.71;101954.53;4999914;28;20233;-52
2022/04/30 02:16:20;;;;;;;7.07;6.00;;;;;;;10.57;74.34;101945.75;4998157;28;20233;-51
2022/04/30 02:18:46;;;;;;;9.87;6.30;;;;;;;10.45;74.44;101942.03;4997149;28;20296;-51
2022/04/30 02:21:13;;;;;;;6.40;5.53;;;;;;;10.37;74.84;101946.25;5003778;28;20316;-51
2022/04/30 02:23:39;;;;;;;6.63;5.37;;;;;;;10.34;75.00;101955.81;4994510;28;20338;-51
2022/04/30 02:26:06;;;;;;;9.80;6.07;;;;;;;10.41;74.74;101949.81;5002525;28;20589;-51
2022/04/30 02:28:32;;;;;;;6.07;5.55;;;;;;;10.40;74.86;101948.06;5003605;28;20331;-52
2022/04/30 02:31:00;;;;;;;6.30;5.40;;;;;;;10.37;74.40;101948.88;5002028;28;20907;-52
2022/04/30 02:33:27;;;;;;;7.37;5.10;;;;;;;10.34;74.93;101948.81;5000806;28;20711;-51
2022/04/30 02:35:53;;;;;;;7.53;5.43;;;;;;;10.25;75.00;101943.38;4996469;28;20234;-52
2022/04/30 02:38:19;;;;;;;5.90;5.23;;;;;;;10.22;75.00;101940.69;4995381;28;20331;-51
2022/04/30 02:40:46;;;;;;;8.33;5.57;;;;;;;10.20;75.26;101939.75;4995029;28;20836;-52
2022/04/30 02:43:15;;;;;;;8.67;5.60;;;;;;;10.22;76.14;101935.44;5006012;28;20228;-51
2022/04/30 02:45:42;;;;;;;5.53;4.90;;;;;;;10.20;76.04;101935.38;4997560;28;20665;-52
2022/04/30 02:48:12;;;;;;;7.33;5.00;;;;;;;10.22;75.80;101927.56;5003780;28;20226;-52
2022/04/30 02:50:38;;;;;;;4.67;4.27;;;;;;;10.20;75.98;101918.75;4996672;28;20246;-52
2022/04/30 02:53:05;;;;;;;5.03;4.53;;;;;;;10.17;76.12;101923.94;5001240;28;20229;-52
2022/04/30 02:55:32;;;;;;;7.13;4.50;;;;;;;10.14;76.33;101913.38;5003406;28;20241;-52
2022/04/30 03:00:45;;;;;;;6.57;4.70;;;;;;;10.09;75.79;101909.78;5006891;28;20243;-51
2022/04/30 03:03:14;;;;;;;8.90;4.87;;;;;;;10.10;76.09;101916.81;5007007;28;20233;-51
2022/04/30 03:05:43;;;;;;;7.20;4.47;;;;;;;10.11;75.92;101913.31;5008770;28;20255;-51
2022/04/30 03:08:12;;;;;;;7.30;5.00;;;;;;;10.09;76.37;101913.31;5011653;28;20229;-51
2022/04/30 03:10:39;;;;;;;6.80;5.67;;;;;;;10.08;75.99;101901.03;4997066;28;20705;-51
2022/04/30 03:13:05;;;;;;;8.27;4.97;;;;;;;10.10;76.04;101906.31;5002622;28;20237;-51
2022/04/30 03:15:32;;;;;;;7.13;5.53;;;;;;;10.08;76.19;101898.41;4996996;28;20233;-52
2022/04/30 03:23:29;;;;;;;6.90;4.57;;;;;;;9.98;76.92;101896.47;4999938;28;20248;-52
2022/04/30 03:25:55;;;;;;;10.90;6.43;;;;;;;10.19;75.55;101893.38;4990463;28;21059;-51
2022/04/30 03:28:21;;;;;;;8.27;6.27;;;;;;;10.06;75.97;101909.72;4993354;28;20233;-52
2022/04/30 03:30:48;;;;;;;8.53;5.57;;;;;;;9.99;74.37;101904.34;5003658;28;20265;-52
2022/04/30 03:33:14;;;;;;;8.73;4.83;;;;;;;9.87;73.99;101906.75;5005572;28;20233;-53
2022/04/30 03:35:40;;;;;;;6.33;4.43;;;;;;;9.80;73.61;101902.22;4991894;28;20288;-53
2022/04/30 03:38:09;;;;;;;4.83;4.33;;;;;;;9.71;73.85;101896.78;5004643;28;20264;-53
2022/04/30 03:40:38;;;;;;;5.97;4.13;;;;;;;9.67;74.71;101894.94;5003600;28;20303;-52
2022/04/30 03:43:05;;;;;;;7.07;4.60;;;;;;;9.65;74.66;101896.63;4990972;28;20633;-51
2022/04/30 03:45:32;;;;;;;9.27;4.50;;;;;;;9.70;74.89;101900.25;4987673;28;20257;-51
2022/04/30 03:47:58;;;;;;;6.23;4.73;;;;;;;9.71;74.03;101907.25;5011067;28;20228;-56
2022/04/30 03:50:24;;;;;;;6.83;4.40;;;;;;;9.70;74.97;101905.50;4997316;28;20264;-52
2022/04/30 03:52:51;;;;;;;5.50;5.00;;;;;;;9.68;75.17;101897.59;5015684;28;20526;-51
2022/04/30 03:55:19;;;;;;;5.87;4.63;;;;;;;9.74;75.32;101899.47;5007334;28;20248;-51
2022/04/30 03:57:45;;;;;;;8.33;5.43;;;;;;;9.73;75.19;101897.69;4994107;28;20248;-50
2022/04/30 04:00:13;;;;;;;7.53;5.33;;;;;;;9.67;75.91;101898.44;5000222;28;20230;-53
2022/04/30 04:02:40;;;;;;;6.03;4.80;;;;;;;9.60;75.51;101900.91;4989799;28;20283;-51
2022/04/30 04:05:08;;;;;;;5.30;4.80;;;;;;;9.55;76.13;101899.06;4996050;28;20709;-51
2022/04/30 04:07:34;;;;;;;4.20;3.80;;;;;;;9.54;76.39;101901.66;4989749;28;20249;-52
2022/04/30 04:10:01;;;;;;;4.67;3.80;;;;;;;9.55;76.66;101900.81;4989908;28;20303;-52
2022/04/30 04:12:28;;;;;;;5.30;4.57;;;;;;;9.55;77.03;101901.69;4996212;28;20690;-51
2022/04/30 04:17:39;;;;;;;5.10;3.80;;;;;;;9.46;77.21;101900.59;4996878;28;20911;-52
2022/04/30 04:20:07;;;;;;;6.40;4.87;;;;;;;9.49;76.89;101896.31;4994138;28;20304;-52
2022/04/30 04:22:33;;;;;;;4.33;3.90;;;;;;;9.50;76.35;101884.97;5009519;28;20237;-53
2022/04/30 04:27:45;;;;;;;5.67;4.53;;;;;;;9.62;76.63;101891.31;5004513;28;20244;-52
2022/04/30 04:30:11;;;;;;;5.03;4.50;;;;;;;9.63;76.51;101893.09;4997972;28;20714;-51
2022/04/30 04:32:38;;;;;;;6.10;4.43;;;;;;;9.63;76.00;101885.25;5000465;28;20245;-52
2022/04/30 04:35:05;;;;;;;4.97;4.27;;;;;;;9.59;76.36;101888.66;5002019;28;20899;-50
2022/04/30 04:37:31;;;;;;;7.90;4.60;;;;;;;9.62;76.58;101892.22;5005074;28;20261;-53
2022/04/30 04:39:58;;;;;;;4.97;4.40;;;;;;;9.63;76.55;101896.63;5002699;28;20243;-52
2022/04/30 04:42:24;;;;;;;5.20;4.33;;;;;;;9.63;76.76;101893.09;5012540;28;20307;-52
2022/04/30 04:44:52;;;;;;;8.13;4.73;;;;;;;9.73;75.65;101895.97;5006080;28;20246;-51
2022/04/30 04:47:19;;;;;;;10.47;5.50;;;;;;;9.79;75.36;101898.72;5009981;28;20245;-51
2022/04/30 04:49:47;;;;;;;6.27;5.53;;;;;;;9.68;75.41;101889.72;5012621;28;20241;-51
2022/04/30 04:52:13;;;;;;;5.27;4.77;;;;;;;9.57;76.23;101897.34;5000948;28;20456;-52
2022/04/30 04:54:40;;;;;;;7.10;5.10;;;;;;;9.52;76.58;101899.00;5002821;28;20261;-53
2022/04/30 04:57:06;;;;;;;5.93;4.67;;;;;;;9.53;77.06;101895.53;5012203;28;20766;-51
2022/04/30 04:59:33;;;;;;;5.07;4.50;;;;;;;9.54;77.42;101899.91;5007037;28;20243;-52
2022/04/30 05:02:02;;;;;;;8.47;5.30;;;;;;;9.59;77.50;101912.25;5005065;28;20237;-51
2022/04/30 05:04:28;;;;;;;9.07;4.90;;;;;;;9.65;77.29;101908.03;4987025;28;20241;-52
2022/04/30 05:06:54;;;;;;;8.97;4.33;;;;;;;9.68;75.93;101909.81;4996374;28;20287;-51
2022/04/30 05:09:21;;;;;;;7.70;5.00;;;;;;;9.68;75.78;101913.31;4992353;28;20732;-53
2022/04/30 05:11:47;;;;;;;8.33;5.77;;;;;;;9.67;75.00;101918.53;4992528;28;20264;-50
2022/04/30 05:14:13;;;;;;;9.40;5.77;;;;;;;9.68;74.56;101920.31;5002705;28;20816;-52
2022/04/30 05:16:40;;;;;;;6.67;5.03;;;;;;;9.76;74.10;101926.63;4987517;28;20320;-53
2022/04/30 05:19:07;;;;;;;5.83;5.23;;;;;;;9.78;74.52;101920.53;5001729;28;20586;-52
2022/04/30 05:21:34;;;;;;;6.47;5.13;;;;;;;9.79;74.69;101922.31;4991160;28;20253;-51
2022/04/30 05:24:00;;;;;;;6.40;4.67;;;;;;;9.78;74.46;101924.91;4994701;28;20256;-52
2022/04/30 05:26:26;;;;;;;5.87;4.80;;;;;;;9.74;74.88;101923.06;4991474;28;20690;-51
2022/04/30 05:28:53;;;;;;;8.53;4.97;;;;;;;9.75;76.00;101936.19;4987769;28;20242;-53
2022/04/30 05:31:20;;;;;;;7.70;4.57;;;;;;;9.79;76.54;101937.16;4992354;28;20257;-52
2022/04/30 05:33:46;;;;;;;4.80;3.80;;;;;;;9.78;76.74;101940.63;4981790;28;20596;-51
2022/04/30 05:36:14;;;;;;;4.80;4.03;;;;;;;9.76;77.75;101947.59;4990672;28;20235;-52
2022/04/30 05:38:40;;;;;;;3.57;3.27;;;;;;;9.75;77.83;101940.56;4994344;28;20244;-52
2022/04/30 05:41:06;;;;;;;4.07;3.67;;;;;;;9.79;77.49;101947.63;4990393;28;20852;-52
2022/04/30 05:43:33;;;;;;;4.80;3.10;;;;;;;9.74;77.87;101944.03;4984324;28;20234;-52
2022/04/30 05:45:59;;;;;;;3.90;3.47;;;;;;;9.73;77.62;101940.53;4989046;28;20261;-54
2022/04/30 05:48:25;;;;;;;5.47;3.17;;;;;;;9.81;76.87;101935.47;4995630;28;20265;-52
2022/04/30 05:50:52;;;;;;;3.93;2.93;;;;;;;9.81;76.87;101935.47;4998650;28;20720;-51
2022/04/30 05:53:19;;;;;;;5.07;3.07;;;;;;;9.88;76.40;101941.72;5008433;28;20373;-53
2022/04/30 05:55:46;;;;;;;4.80;3.77;;;;;;;9.84;76.44;101943.41;4999043;28;20317;-52
2022/04/30 05:58:13;;;;;;;4.50;3.73;;;;;;;9.89;76.51;101944.38;5010290;28;20303;-53
2022/04/30 06:00:39;;;;;;;6.43;3.17;;;;;;;9.95;75.56;101939.25;4994695;28;20229;-53
2022/04/30 06:03:06;;;;;;;3.53;3.23;;;;;;;9.98;74.85;101939.31;4998656;28;20230;-56
2022/04/30 06:05:32;;;;;;;4.63;2.97;;;;;;;10.00;75.35;101939.34;4996077;28;20238;-54
2022/04/30 06:07:59;;;;;;;4.53;3.23;;;;;;;9.99;75.54;101946.31;4999968;28;20610;-53
2022/04/30 06:10:27;;;;;;;5.23;3.33;;;;;;;10.01;75.18;101939.38;4998923;28;20295;-53
2022/04/30 06:12:53;;;;;;;3.70;2.37;;;;;;;9.99;75.07;101941.09;4989600;28;20786;-51
2022/04/30 06:15:19;;;;;;;8.67;3.27;;;;;;;10.07;75.15;101945.59;5002369;28;20265;-52
2022/04/30 06:17:46;;;;;;;7.47;3.27;;;;;;;10.08;74.74;101947.41;4989249;28;20320;-52
2022/04/30 06:20:12;;;;;;;3.13;2.90;;;;;;;10.10;74.48;101957.03;5011586;28;20664;-52
2022/04/30 06:22:39;;;;;;;5.97;3.27;;;;;;;10.11;74.01;101952.69;4997050;28;20241;-52
2022/04/30 06:25:06;;;;;;;3.43;2.80;;;;;;;10.13;74.74;101953.59;5003425;28;20291;-53
2022/04/30 06:27:34;;;;;;;3.27;2.93;;;;;;;10.21;74.31;101959.88;4993568;28;20233;-52
2022/04/30 06:30:00;;;;;;;3.47;2.77;;;;;;;10.24;74.11;101957.31;4997842;28;20226;-53
2022/04/30 06:32:27;;;;;;;4.60;3.00;;;;;;;10.27;73.62;101957.44;5005127;28;20259;-53
2022/04/30 06:34:54;;;;;;;3.73;3.33;;;;;;;10.33;73.24;101960.19;5016838;28;20240;-53
2022/04/30 06:37:20;;;;;;;2.80;2.57;;;;;;;10.37;73.33;101958.50;5004135;28;20325;-53
2022/04/30 06:39:47;;;;;;;5.27;3.03;;;;;;;10.50;72.24;101950.00;5016100;28;20364;-52
2022/04/30 06:42:14;;;;;;;4.67;2.93;;;;;;;10.55;71.97;101950.97;5021419;28;20291;-52
2022/04/30 06:44:41;;;;;;;3.90;2.67;;;;;;;10.53;71.63;101950.06;5019424;28;20264;-52
2022/04/30 06:47:08;;;;;;;5.27;3.67;;;;;;;10.58;71.57;101955.41;4998891;28;20789;-55
2022/04/30 06:49:35;;;;;;;5.93;2.97;;;;;;;10.67;71.33;101960.81;5012413;28;20253;-53
2022/04/30 06:52:01;;;;;;;4.37;3.03;;;;;;;10.67;71.48;101945.94;5001283;28;20277;-53
2022/04/30 06:57:12;;;;;;;7.43;2.70;;;;;;;10.70;71.59;101958.22;4988712;28;20261;-52
2022/04/30 06:59:40;;;;;;;5.77;2.87;;;;;;;10.80;71.15;101959.28;4999271;28;20252;-51
2022/04/30 07:02:13;;;;;;;8.93;3.97;;;;;;;10.92;69.74;101954.28;4999846;28;20469;-52
2022/04/30 07:04:41;;;;;;;5.10;3.70;;;;;;;11.03;68.22;101957.97;5005577;28;20245;-52
2022/04/30 07:07:07;;;;;;;6.60;3.37;;;;;;;11.33;66.18;101952.28;5008405;28;20317;-51
2022/04/30 07:09:34;;;;;;;6.73;3.00;;;;;;;11.30;66.17;101959.25;5004181;28;20238;-52
2022/04/30 07:12:00;;;;;;;5.28;3.22;;;;;;;11.50;65.77;101949.03;5000527;28;20225;-53
2022/04/30 07:14:27;;;;;;;3.43;3.00;;;;;;;11.44;65.64;101949.81;5004173;28;20744;-52
2022/04/30 07:16:53;;;;;;;5.28;3.70;;;;;;;11.41;65.67;101948.06;4985744;28;20690;-53
2022/04/30 07:19:21;;;;;;;6.57;2.38;;;;;;;11.36;65.76;101954.09;4981677;28;20685;-52
2022/04/30 07:21:47;;;;;;;5.20;2.53;;;;;;;11.49;65.33;101957.81;4987769;28;20502;-52
2022/04/30 07:24:14;;;;;;;5.05;2.78;;;;;;;11.72;63.79;101956.38;4992260;28;20702;-52
2022/04/30 07:26:40;;;;;;;3.13;2.67;;;;;;;11.74;63.39;101956.41;4990896;28;21009;-51
2022/04/30 07:29:06;;;;;;;7.60;2.90;;;;;;;11.82;63.30;101962.66;4997702;28;20554;-52
2022/04/30 07:31:33;;;;;;;3.65;2.53;;;;;;;11.93;64.12;101950.53;4999087;28;20257;-51
2022/04/30 07:34:00;;;;;;;5.00;2.85;;;;;;;12.04;64.28;101955.94;4995751;28;20318;-52
2022/04/30 07:36:27;;;;;;;4.28;3.17;;;;;;;12.13;62.28;101956.06;4992152;28;20245;-52
2022/04/30 07:38:55;;;;;;;5.45;3.00;;;;;;;12.26;61.30;101960.63;4991408;28;20651;-52
2022/04/30 07:41:21;;;;;;;3.88;2.83;;;;;;;12.30;61.30;101967.69;5007183;28;20236;-53
2022/04/30 07:43:48;;;;;;;3.65;2.67;;;;;;;12.40;60.85;101974.81;5008966;28;20499;-52
2022/04/30 07:46:14;;;;;;;3.85;2.58;;;;;;;12.34;61.37;101972.13;5007496;28;20234;-54
2022/04/30 07:48:40;;;;;;;4.78;2.65;;;;;;;12.54;60.40;101964.44;5005927;28;20237;-53
2022/04/30 07:51:13;;;;;;;3.80;2.97;;;;;;;12.51;60.39;101982.84;5003990;28;20234;-55
2022/04/30 07:53:42;;;;;;;4.30;3.20;;;;;;;12.65;59.17;101975.09;5003303;28;20253;-52
2022/04/30 07:56:09;;;;;;;6.53;2.95;;;;;;;12.61;59.81;101966.28;4997829;28;20231;-52
2022/04/30 07:58:35;;;;;;;4.68;3.42;;;;;;;12.49;60.30;101978.41;5001850;28;20288;-52
2022/04/30 08:01:02;;;;;;;6.15;3.40;;;;;;;12.47;61.32;101972.28;4983159;28;20260;-52
2022/04/30 08:03:28;;;;;;;5.53;3.25;;;;;;;12.55;60.47;101976.75;4998461;28;20260;-51
2022/04/30 08:05:54;;;;;;;2.92;2.50;;;;;;;12.58;60.95;101978.53;4992263;28;20237;-52
2022/04/30 08:08:21;;;;;;;3.60;3.17;;;;;;;12.60;61.33;101972.44;4985328;28;20288;-53
2022/04/30 08:10:49;;;;;;;4.35;3.05;;;;;;;12.79;61.52;101973.47;4992548;28;20264;-51
2022/04/30 08:13:15;;;;;;;5.25;2.78;;;;;;;13.06;60.42;101977.25;5005932;28;20302;-53
2022/04/30 08:15:43;;;;;;;6.20;2.88;;;;;;;13.30;58.40;101966.03;5004162;28;20245;-56
2022/04/30 08:18:09;;;;;;;2.58;2.38;;;;;;;13.44;57.99;101974.03;4995514;28;20234;-53
2022/04/30 08:20:37;;;;;;;7.43;2.92;;;;;;;13.58;58.06;101967.09;5007379;28;20229;-52
2022/04/30 08:23:04;;;;;;;6.63;2.95;;;;;;;13.67;57.73;101977.72;5005008;28;20237;-54
2022/04/30 08:25:31;;;;;;;4.82;3.17;;;;;;;13.83;55.46;101979.59;5001037;28;20321;-53
2022/04/30 08:27:58;;;;;;;4.18;2.83;;;;;;;13.77;55.17;101973.41;4994179;28;20286;-54
2022/04/30 08:30:25;;;;;;;4.65;2.95;;;;;;;13.83;55.73;101981.34;4999650;28;20299;-54
2022/04/30 08:32:51;;;;;;;3.92;2.55;;;;;;;13.90;55.56;101979.59;4991733;28;20297;-52
2022/04/30 08:35:18;;;;;;;2.97;2.67;;;;;;;13.72;55.71;101976.00;4999746;28;20245;-52
2022/04/30 08:37:44;;;;;;;3.58;2.53;;;;;;;13.71;56.88;101974.22;5001532;28;20229;-54
2022/04/30 08:40:12;;;;;;;4.40;3.00;;;;;;;13.85;55.46;101962.00;4998134;28;20713;-52
2022/04/30 08:42:38;;;;;;;4.30;2.60;;;;;;;13.88;55.34;101970.81;4999416;28;20716;-52
2022/04/30 08:45:09;;;;;;;3.78;2.90;;;;;;;13.88;54.97;101962.91;5012901;28;20717;-56
2022/04/30 08:47:39;;;;;;;4.80;2.78;;;;;;;13.87;54.58;101961.13;5004063;28;20806;-53
2022/04/30 08:50:08;;;;;;;2.95;2.50;;;;;;;13.82;53.84;101956.69;4994353;28;20224;-58
2022/04/30 08:52:34;;;;;;;4.35;2.80;;;;;;;13.82;53.75;101961.09;4996443;28;20295;-52
2022/04/30 08:55:01;;;;;;;3.55;2.40;;;;;;;13.74;54.67;101966.34;4995769;28;20249;-51
2022/04/30 08:57:28;;;;;;;4.47;3.20;;;;;;;13.76;54.13;101969.88;5001541;28;20304;-51
2022/04/30 08:59:54;;;;;;;6.28;3.00;;;;;;;13.83;53.94;101969.03;4987372;28;20268;-51
2022/04/30 09:02:22;;;;;;;4.50;2.90;;;;;;;13.98;53.46;101959.44;4989045;28;20378;-52
2022/04/30 09:04:50;;;;;;;5.05;3.63;;;;;;;14.21;52.30;101954.22;4992313;28;20528;-52
2022/04/30 09:07:18;;;;;;;2.95;2.67;;;;;;;14.31;50.84;101962.19;4991025;28;20253;-52
2022/04/30 09:09:45;;;;;;;3.10;2.67;;;;;;;14.37;51.67;101961.34;4985074;28;20752;-52
2022/04/30 09:12:13;;;;;;;6.00;2.78;;;;;;;14.46;52.83;101960.47;4998795;28;20597;-51
2022/04/30 09:14:41;;;;;;;3.40;2.80;;;;;;;14.43;52.31;101960.47;4979396;28;20249;-51
2022/04/30 09:17:09;;;;;;;4.80;2.83;;;;;;;14.57;52.40;101953.50;4989869;28;20297;-52
2022/04/30 09:19:47;;;;;;;7.18;3.33;;;;;;;14.69;51.97;101958.78;4984378;28;20249;-53
2022/04/30 09:22:14;;;;;;;5.45;3.33;;;;;;;14.82;51.57;101961.47;5005536;28;20237;-51
2022/04/30 09:24:49;;;;;;;3.58;2.65;;;;;;;14.93;51.14;101963.22;4994986;28;20243;-52
2022/04/30 09:27:16;;;;;;;4.72;3.20;;;;;;;14.88;51.80;101961.44;5005999;28;20247;-53
2022/04/30 09:29:42;;;;;;;2.83;2.55;;;;;;;15.25;50.32;101960.59;4993068;28;20233;-52
2022/04/30 09:32:09;;;;;;;5.65;3.22;;;;;;;15.42;50.54;101960.56;4996855;28;20257;-50
2022/04/30 09:37:43;;;;;;;4.93;3.25;;;;;;;15.73;48.93;101937.59;4992407;28;20236;-50
2022/04/30 09:40:20;;;;;;;5.60;2.80;;;;;;;15.64;49.51;101942.88;5021775;28;20635;-51
2022/04/30 09:42:47;;;;;;;3.67;2.67;;;;;;;15.79;49.97;101941.09;4992140;28;20264;-52
2022/04/30 09:45:23;;;;;;;4.53;3.05;;;;;;;16.10;47.89;101936.56;5000001;28;20268;-52
2022/04/30 09:47:49;;;;;;;3.78;3.05;;;;;;;16.17;47.91;101939.19;4991969;28;20857;-51
2022/04/30 09:55:52;;;;;;;4.35;2.92;;;;;;;16.07;48.46;101926.84;4996736;28;20237;-52
2022/04/30 09:58:20;;;;;;;4.03;2.90;;;;;;;16.19;48.29;101929.47;4991153;28;20516;-51
2022/04/30 10:00:47;;;;;;;5.47;3.13;;;;;;;16.57;47.77;101933.66;4997415;28;20242;-53
2022/04/30 10:03:15;;;;;;;5.03;2.72;;;;;;;16.85;46.50;101929.06;4991054;28;20264;-52
2022/04/30 10:05:41;;;;;;;5.77;4.07;;;;;;;17.21;44.50;101927.00;4995777;28;20861;-51
2022/04/30 10:08:09;;;;;;;3.40;2.97;;;;;;;17.16;43.53;101928.78;5002029;28;20315;-51
2022/04/30 10:10:43;;;;;;;3.75;2.85;;;;;;;17.27;43.76;101918.97;4989999;28;20236;-52
2022/04/30 10:13:16;;;;;;;4.05;3.03;;;;;;;17.26;44.03;101919.84;4997504;28;20229;-52
2022/04/30 10:15:45;;;;;;;4.30;3.50;;;;;;;17.24;42.95;101920.78;4994246;28;20292;-53
2022/04/30 10:18:13;;;;;;;3.50;3.10;;;;;;;17.01;43.19;101920.97;4986976;28;20242;-52
2022/04/30 10:20:40;;;;;;;4.75;3.10;;;;;;;16.89;43.40;101924.63;4984559;28;20237;-54
2022/04/30 10:23:07;;;;;;;3.50;2.63;;;;;;;16.87;42.93;101910.47;4997971;28;20249;-53
2022/04/30 10:25:36;;;;;;;5.25;3.47;;;;;;;17.17;41.20;101906.69;5002786;28;20344;-53
2022/04/30 10:28:17;;;;;;;5.15;2.85;;;;;;;17.30;42.05;101904.78;5005016;28;20288;-52
2022/04/30 10:30:44;;;;;;;4.47;3.10;;;;;;;17.64;41.63;101905.31;4997374;28;20595;-52
2022/04/30 10:33:11;;;;;;;3.67;2.83;;;;;;;17.69;41.50;101899.94;5009419;28;20233;-53
2022/04/30 10:35:38;;;;;;;6.65;3.20;;;;;;;17.74;41.06;101900.78;5005106;28;20291;-53
2022/04/30 10:38:12;;;;;;;4.40;2.80;;;;;;;17.64;41.73;101900.88;4990945;28;20304;-53
2022/04/30 10:40:42;;;;;;;8.82;3.28;;;;;;;17.56;42.23;101893.91;5005357;28;20241;-56
2022/04/30 10:43:15;;;;;;;4.15;2.50;;;;;;;17.50;41.56;101897.50;4995782;28;20248;-54
2022/04/30 10:45:42;;;;;;;3.20;2.58;;;;;;;17.35;41.80;101898.53;4985964;28;20681;-53
2022/04/30 10:48:08;;;;;;;4.43;3.15;;;;;;;17.41;41.83;101897.59;4985748;28;20237;-52
2022/04/30 10:50:35;;;;;;;3.92;3.10;;;;;;;17.35;41.50;101877.31;4994796;28;20245;-53
2022/04/30 10:53:02;;;;;;;4.88;2.70;;;;;;;17.47;41.91;101886.03;4984891;28;20654;-52
2022/04/30 10:55:28;;;;;;;6.68;3.25;;;;;;;17.52;41.14;101884.22;4991992;28;20237;-52
2022/04/30 10:57:56;;;;;;;5.05;3.53;;;;;;;17.71;40.89;101885.75;4987341;28;20306;-55
2022/04/30 11:00:22;;;;;;;3.80;3.15;;;;;;;17.84;40.55;101887.38;4984641;28;20249;-54
2022/04/30 11:02:49;;;;;;;3.75;2.88;;;;;;;18.13;40.09;101884.34;4990467;28;20304;-52
2022/04/30 11:05:19;;;;;;;4.72;3.58;;;;;;;18.41;40.11;101878.63;4991957;28;20271;-52
2022/04/30 11:07:45;;;;;;;3.05;2.78;;;;;;;18.49;39.59;101878.50;4984915;28;20260;-51
2022/04/30 11:10:12;;;;;;;5.00;3.28;;;;;;;18.28;38.82;101877.03;4982228;28;20237;-52
2022/04/30 11:12:39;;;;;;;2.85;2.60;;;;;;;18.62;39.16;101868.56;4991780;28;20233;-52
2022/04/30 11:15:08;;;;;;;3.15;2.60;;;;;;;18.91;38.02;101871.63;5005052;28;20233;-54
2022/04/30 11:17:42;;;;;;;9.23;3.40;;;;;;;19.02;37.67;101869.69;4997778;28;20252;-53
2022/04/30 11:20:10;;;;;;;3.83;2.50;;;;;;;18.95;38.26;101860.00;4981874;28;20237;-52
2022/04/30 11:22:36;;;;;;;4.25;2.67;;;;;;;18.99;37.50;101855.50;4992478;28;20323;-54
2022/04/30 11:25:03;;;;;;;3.60;3.15;;;;;;;19.07;37.44;101862.47;4987570;28;20237;-53
2022/04/30 11:27:31;;;;;;;6.38;3.42;;;;;;;19.19;37.15;101847.16;4992012;28;20229;-52
2022/04/30 11:29:57;;;;;;;9.85;3.33;;;;;;;19.21;37.67;101850.69;5001206;28;20233;-53
2022/04/30 11:32:27;;;;;;;5.03;3.45;;;;;;;19.09;37.98;101851.78;5006065;28;20234;-52
2022/04/30 11:34:55;;;;;;;4.95;3.55;;;;;;;19.38;39.42;101855.69;4990464;28;20241;-51
2022/04/30 11:37:21;;;;;;;6.85;4.10;;;;;;;19.52;39.28;101851.84;4993340;28;20320;-52
2022/04/30 11:39:48;;;;;;;4.70;3.80;;;;;;;19.54;39.25;101844.69;4983734;28;20237;-52
2022/04/30 11:42:14;;;;;;;6.13;3.80;;;;;;;19.29;39.02;101843.41;4989195;28;20234;-52
2022/04/30 11:44:40;;;;;;;7.43;4.25;;;;;;;19.02;39.08;101845.72;4988067;28;20241;-52
2022/04/30 11:47:08;;;;;;;5.97;3.40;;;;;;;18.97;40.24;101852.88;4999518;28;20238;-52
2022/04/30 11:49:36;;;;;;;5.63;3.80;;;;;;;19.10;40.60;101842.03;4998696;28;20255;-52
2022/04/30 11:52:03;;;;;;;6.35;4.30;;;;;;;18.73;38.97;101848.88;5008478;28;20254;-53
2022/04/30 11:54:30;;;;;;;3.90;3.38;;;;;;;18.72;39.15;101830.28;4996722;28;20312;-52
2022/04/30 11:56:58;;;;;;;4.22;3.42;;;;;;;18.70;40.71;101834.72;4990963;28;20665;-51
2022/04/30 11:59:29;;;;;;;6.13;3.50;;;;;;;18.75;39.34;101841.75;4991601;28;20269;-52